sensor_id;sensor_type;location;lat;lon;timestamp;P1;durP1;ratioP1;P2;durP2;ratioP2
83306;SDS011;73223;48.584;13.460;2023-12-28T00:00:12;8.70;;;3.00;;
83306;SDS011;73223;48.584;13.460;2023-12-28T00:02:37;9.57;;;3.08;;
83306;SDS011;73223;48.584;13.460;2023-12-28T00:05:03;10.40;;;3.37;;
83306;SDS011;73223;48.584;13.460;2023-12-28T00:07:28;8.80;;;3.22;;
83306;SDS011;73223;48.584;13.460;2023-12-28T00:09:54;7.60;;;2.83;;
83306;SDS011;73223;48.584;13.460;2023-12-28T00:12:19;7.67;;;3.10;;
83306;SDS011;73223;48.584;13.460;2023-12-28T00:14:44;7.60;;;3.00;;
83306;SDS011;73223;48.584;13.460;2023-12-28T00:17:10;7.13;;;2.80;;
83306;SDS011;73223;48.584;13.460;2023-12-28T00:19:35;7.20;;;3.23;;
83306;SDS011;73223;48.584;13.460;2023-12-28T00:22:00;11.00;;;3.53;;
83306;SDS011;73223;48.584;13.460;2023-12-28T00:24:25;10.40;;;3.33;;
83306;SDS011;73223;48.584;13.460;2023-12-28T00:26:51;9.90;;;3.60;;
83306;SDS011;73223;48.584;13.460;2023-12-28T00:29:16;8.03;;;2.97;;
83306;SDS011;73223;48.584;13.460;2023-12-28T00:31:41;9.70;;;3.30;;
83306;SDS011;73223;48.584;13.460;2023-12-28T00:34:06;10.15;;;3.22;;
83306;SDS011;73223;48.584;13.460;2023-12-28T00:36:32;7.53;;;3.00;;
83306;SDS011;73223;48.584;13.460;2023-12-28T00:38:57;8.77;;;3.38;;
83306;SDS011;73223;48.584;13.460;2023-12-28T00:41:22;7.87;;;3.13;;
83306;SDS011;73223;48.584;13.460;2023-12-28T00:43:48;10.45;;;3.20;;
83306;SDS011;73223;48.584;13.460;2023-12-28T00:46:13;10.10;;;3.08;;
83306;SDS011;73223;48.584;13.460;2023-12-28T00:48:38;8.52;;;3.30;;
83306;SDS011;73223;48.584;13.460;2023-12-28T00:51:03;9.35;;;3.90;;
83306;SDS011;73223;48.584;13.460;2023-12-28T00:53:29;8.73;;;4.10;;
83306;SDS011;73223;48.584;13.460;2023-12-28T00:55:54;7.67;;;3.37;;
83306;SDS011;73223;48.584;13.460;2023-12-28T00:58:19;10.03;;;3.73;;
83306;SDS011;73223;48.584;13.460;2023-12-28T01:00:45;9.55;;;3.95;;
83306;SDS011;73223;48.584;13.460;2023-12-28T01:03:10;7.77;;;3.40;;
83306;SDS011;73223;48.584;13.460;2023-12-28T01:05:35;10.77;;;3.87;;
83306;SDS011;73223;48.584;13.460;2023-12-28T01:08:01;20.50;;;3.75;;
83306;SDS011;73223;48.584;13.460;2023-12-28T01:10:26;37.17;;;4.57;;
83306;SDS011;73223;48.584;13.460;2023-12-28T01:12:51;10.30;;;3.87;;
83306;SDS011;73223;48.584;13.460;2023-12-28T01:15:16;39.37;;;5.00;;
83306;SDS011;73223;48.584;13.460;2023-12-28T01:17:42;66.00;;;5.03;;
83306;SDS011;73223;48.584;13.460;2023-12-28T01:20:08;310.52;;;15.57;;
83306;SDS011;73223;48.584;13.460;2023-12-28T01:22:34;324.20;;;13.70;;
83306;SDS011;73223;48.584;13.460;2023-12-28T01:24:59;16.17;;;4.00;;
83306;SDS011;73223;48.584;13.460;2023-12-28T01:27:24;63.08;;;5.55;;
83306;SDS011;73223;48.584;13.460;2023-12-28T01:29:50;9.80;;;3.60;;
83306;SDS011;73223;48.584;13.460;2023-12-28T01:32:15;9.87;;;4.13;;
83306;SDS011;73223;48.584;13.460;2023-12-28T01:34:40;12.70;;;5.20;;
83306;SDS011;73223;48.584;13.460;2023-12-28T01:37:07;10.43;;;3.85;;
83306;SDS011;73223;48.584;13.460;2023-12-28T01:39:33;8.80;;;3.75;;
83306;SDS011;73223;48.584;13.460;2023-12-28T01:41:58;10.45;;;4.57;;
83306;SDS011;73223;48.584;13.460;2023-12-28T01:44:23;11.02;;;4.05;;
83306;SDS011;73223;48.584;13.460;2023-12-28T01:46:49;9.03;;;3.40;;
83306;SDS011;73223;48.584;13.460;2023-12-28T01:49:14;14.77;;;4.25;;
83306;SDS011;73223;48.584;13.460;2023-12-28T01:51:40;43.58;;;4.55;;
83306;SDS011;73223;48.584;13.460;2023-12-28T01:54:06;63.88;;;4.80;;
83306;SDS011;73223;48.584;13.460;2023-12-28T01:56:31;91.72;;;6.00;;
83306;SDS011;73223;48.584;13.460;2023-12-28T01:58:56;58.85;;;5.97;;
83306;SDS011;73223;48.584;13.460;2023-12-28T02:01:22;33.60;;;3.58;;
83306;SDS011;73223;48.584;13.460;2023-12-28T02:03:47;57.38;;;4.32;;
83306;SDS011;73223;48.584;13.460;2023-12-28T02:06:13;59.30;;;4.85;;
83306;SDS011;73223;48.584;13.460;2023-12-28T02:08:42;72.13;;;5.70;;
83306;SDS011;73223;48.584;13.460;2023-12-28T02:11:07;93.70;;;5.03;;
83306;SDS011;73223;48.584;13.460;2023-12-28T02:13:33;10.20;;;4.03;;
83306;SDS011;73223;48.584;13.460;2023-12-28T02:16:02;27.85;;;3.50;;
83306;SDS011;73223;48.584;13.460;2023-12-28T02:18:39;71.43;;;4.28;;
83306;SDS011;73223;48.584;13.460;2023-12-28T02:21:08;23.67;;;3.92;;
83306;SDS011;73223;48.584;13.460;2023-12-28T02:26:01;109.85;;;5.90;;
83306;SDS011;73223;48.584;13.460;2023-12-28T02:28:26;96.38;;;5.55;;
83306;SDS011;73223;48.584;13.460;2023-12-28T02:30:52;95.47;;;5.53;;
83306;SDS011;73223;48.584;13.460;2023-12-28T02:33:29;312.58;;;13.63;;
83306;SDS011;73223;48.584;13.460;2023-12-28T02:36:01;257.27;;;11.35;;
83306;SDS011;73223;48.584;13.460;2023-12-28T02:38:30;289.85;;;12.00;;
83306;SDS011;73223;48.584;13.460;2023-12-28T02:40:57;117.88;;;6.13;;
83306;SDS011;73223;48.584;13.460;2023-12-28T02:43:23;47.60;;;3.65;;
83306;SDS011;73223;48.584;13.460;2023-12-28T02:45:48;46.20;;;4.45;;
83306;SDS011;73223;48.584;13.460;2023-12-28T02:48:14;42.88;;;3.63;;
83306;SDS011;73223;48.584;13.460;2023-12-28T02:50:39;38.85;;;4.00;;
83306;SDS011;73223;48.584;13.460;2023-12-28T02:53:04;72.77;;;4.57;;
83306;SDS011;73223;48.584;13.460;2023-12-28T02:55:30;107.50;;;5.90;;
83306;SDS011;73223;48.584;13.460;2023-12-28T02:57:56;46.03;;;3.93;;
83306;SDS011;73223;48.584;13.460;2023-12-28T03:00:25;82.72;;;5.03;;
83306;SDS011;73223;48.584;13.460;2023-12-28T03:02:50;80.40;;;4.22;;
83306;SDS011;73223;48.584;13.460;2023-12-28T03:05:16;55.00;;;3.83;;
83306;SDS011;73223;48.584;13.460;2023-12-28T03:07:41;45.85;;;4.03;;
83306;SDS011;73223;48.584;13.460;2023-12-28T03:10:07;82.07;;;7.80;;
83306;SDS011;73223;48.584;13.460;2023-12-28T03:12:33;118.32;;;7.30;;
83306;SDS011;73223;48.584;13.460;2023-12-28T03:14:58;39.83;;;3.67;;
83306;SDS011;73223;48.584;13.460;2023-12-28T03:17:24;26.07;;;3.40;;
83306;SDS011;73223;48.584;13.460;2023-12-28T03:19:49;111.18;;;6.80;;
83306;SDS011;73223;48.584;13.460;2023-12-28T03:22:14;74.43;;;4.57;;
83306;SDS011;73223;48.584;13.460;2023-12-28T03:24:40;50.13;;;3.58;;
83306;SDS011;73223;48.584;13.460;2023-12-28T03:27:06;45.92;;;3.67;;
83306;SDS011;73223;48.584;13.460;2023-12-28T03:29:31;347.63;;;15.52;;
83306;SDS011;73223;48.584;13.460;2023-12-28T03:31:56;170.48;;;8.15;;
83306;SDS011;73223;48.584;13.460;2023-12-28T03:34:22;36.22;;;3.28;;
83306;SDS011;73223;48.584;13.460;2023-12-28T03:36:48;55.47;;;4.10;;
83306;SDS011;73223;48.584;13.460;2023-12-28T03:39:16;120.43;;;6.32;;
83306;SDS011;73223;48.584;13.460;2023-12-28T03:41:41;121.50;;;5.60;;
83306;SDS011;73223;48.584;13.460;2023-12-28T03:44:06;159.40;;;6.40;;
83306;SDS011;73223;48.584;13.460;2023-12-28T03:46:32;101.20;;;5.53;;
83306;SDS011;73223;48.584;13.460;2023-12-28T03:48:57;198.13;;;7.38;;
83306;SDS011;73223;48.584;13.460;2023-12-28T03:51:22;110.35;;;7.07;;
83306;SDS011;73223;48.584;13.460;2023-12-28T03:53:48;112.82;;;6.18;;
83306;SDS011;73223;48.584;13.460;2023-12-28T03:56:26;181.70;;;10.57;;
83306;SDS011;73223;48.584;13.460;2023-12-28T03:58:52;104.28;;;5.07;;
83306;SDS011;73223;48.584;13.460;2023-12-28T04:01:19;92.72;;;4.82;;
83306;SDS011;73223;48.584;13.460;2023-12-28T04:03:45;59.25;;;4.03;;
83306;SDS011;73223;48.584;13.460;2023-12-28T04:06:11;94.00;;;5.38;;
83306;SDS011;73223;48.584;13.460;2023-12-28T04:08:41;47.05;;;3.63;;
83306;SDS011;73223;48.584;13.460;2023-12-28T04:11:06;94.50;;;5.38;;
83306;SDS011;73223;48.584;13.460;2023-12-28T04:13:32;97.80;;;4.22;;
83306;SDS011;73223;48.584;13.460;2023-12-28T04:15:57;67.73;;;5.20;;
83306;SDS011;73223;48.584;13.460;2023-12-28T04:18:23;33.25;;;3.83;;
83306;SDS011;73223;48.584;13.460;2023-12-28T04:20:48;237.10;;;9.85;;
83306;SDS011;73223;48.584;13.460;2023-12-28T04:23:14;230.38;;;10.02;;
83306;SDS011;73223;48.584;13.460;2023-12-28T04:25:39;139.30;;;6.97;;
83306;SDS011;73223;48.584;13.460;2023-12-28T04:28:05;140.35;;;6.93;;
83306;SDS011;73223;48.584;13.460;2023-12-28T04:30:31;157.52;;;6.60;;
83306;SDS011;73223;48.584;13.460;2023-12-28T04:32:56;33.90;;;3.53;;
83306;SDS011;73223;48.584;13.460;2023-12-28T04:35:21;140.43;;;6.47;;
83306;SDS011;73223;48.584;13.460;2023-12-28T04:37:47;125.30;;;5.90;;
83306;SDS011;73223;48.584;13.460;2023-12-28T04:40:12;96.60;;;5.97;;
83306;SDS011;73223;48.584;13.460;2023-12-28T04:42:39;77.28;;;5.97;;
83306;SDS011;73223;48.584;13.460;2023-12-28T04:45:05;55.85;;;4.05;;
83306;SDS011;73223;48.584;13.460;2023-12-28T04:47:30;92.93;;;6.45;;
83306;SDS011;73223;48.584;13.460;2023-12-28T04:49:56;153.75;;;7.43;;
83306;SDS011;73223;48.584;13.460;2023-12-28T04:52:21;83.90;;;5.40;;
83306;SDS011;73223;48.584;13.460;2023-12-28T04:54:46;68.57;;;4.17;;
83306;SDS011;73223;48.584;13.460;2023-12-28T04:57:11;121.80;;;5.97;;
83306;SDS011;73223;48.584;13.460;2023-12-28T04:59:40;92.75;;;7.40;;
83306;SDS011;73223;48.584;13.460;2023-12-28T05:02:06;91.47;;;5.65;;
83306;SDS011;73223;48.584;13.460;2023-12-28T05:04:31;110.68;;;5.93;;
83306;SDS011;73223;48.584;13.460;2023-12-28T05:06:57;65.53;;;4.95;;
83306;SDS011;73223;48.584;13.460;2023-12-28T05:09:22;146.33;;;7.47;;
83306;SDS011;73223;48.584;13.460;2023-12-28T05:11:47;201.57;;;10.25;;
83306;SDS011;73223;48.584;13.460;2023-12-28T05:14:13;286.50;;;11.27;;
83306;SDS011;73223;48.584;13.460;2023-12-28T05:16:38;180.40;;;7.90;;
83306;SDS011;73223;48.584;13.460;2023-12-28T05:19:03;109.07;;;5.93;;
83306;SDS011;73223;48.584;13.460;2023-12-28T05:21:28;116.90;;;5.80;;
83306;SDS011;73223;48.584;13.460;2023-12-28T05:23:54;124.30;;;8.17;;
83306;SDS011;73223;48.584;13.460;2023-12-28T05:26:19;89.20;;;4.87;;
83306;SDS011;73223;48.584;13.460;2023-12-28T05:28:44;171.80;;;7.87;;
83306;SDS011;73223;48.584;13.460;2023-12-28T05:31:09;74.83;;;4.30;;
83306;SDS011;73223;48.584;13.460;2023-12-28T05:33:35;89.65;;;4.68;;
83306;SDS011;73223;48.584;13.460;2023-12-28T05:36:00;73.63;;;5.05;;
83306;SDS011;73223;48.584;13.460;2023-12-28T05:38:25;93.80;;;5.10;;
83306;SDS011;73223;48.584;13.460;2023-12-28T05:40:50;92.17;;;5.53;;
83306;SDS011;73223;48.584;13.460;2023-12-28T05:43:16;132.77;;;5.70;;
83306;SDS011;73223;48.584;13.460;2023-12-28T05:45:41;75.23;;;4.37;;
83306;SDS011;73223;48.584;13.460;2023-12-28T05:48:06;116.05;;;7.43;;
83306;SDS011;73223;48.584;13.460;2023-12-28T05:50:32;119.72;;;6.88;;
83306;SDS011;73223;48.584;13.460;2023-12-28T05:52:57;107.80;;;7.38;;
83306;SDS011;73223;48.584;13.460;2023-12-28T05:55:22;115.17;;;8.13;;
83306;SDS011;73223;48.584;13.460;2023-12-28T05:57:48;87.73;;;4.67;;
83306;SDS011;73223;48.584;13.460;2023-12-28T06:00:13;53.92;;;3.88;;
83306;SDS011;73223;48.584;13.460;2023-12-28T06:02:39;106.32;;;5.40;;
83306;SDS011;73223;48.584;13.460;2023-12-28T06:05:05;72.30;;;4.30;;
83306;SDS011;73223;48.584;13.460;2023-12-28T06:07:31;67.05;;;3.47;;
83306;SDS011;73223;48.584;13.460;2023-12-28T06:09:56;94.20;;;5.57;;
83306;SDS011;73223;48.584;13.460;2023-12-28T06:12:21;93.83;;;5.47;;
83306;SDS011;73223;48.584;13.460;2023-12-28T06:14:47;239.00;;;9.87;;
83306;SDS011;73223;48.584;13.460;2023-12-28T06:17:12;135.98;;;5.85;;
83306;SDS011;73223;48.584;13.460;2023-12-28T06:19:39;103.13;;;4.90;;
83306;SDS011;73223;48.584;13.460;2023-12-28T06:22:05;245.67;;;8.87;;
83306;SDS011;73223;48.584;13.460;2023-12-28T06:24:30;195.57;;;7.97;;
83306;SDS011;73223;48.584;13.460;2023-12-28T06:26:55;157.17;;;7.80;;
83306;SDS011;73223;48.584;13.460;2023-12-28T06:29:21;128.50;;;6.00;;
83306;SDS011;73223;48.584;13.460;2023-12-28T06:31:47;177.30;;;9.52;;
83306;SDS011;73223;48.584;13.460;2023-12-28T06:34:12;143.27;;;7.07;;
83306;SDS011;73223;48.584;13.460;2023-12-28T06:36:37;142.00;;;6.90;;
83306;SDS011;73223;48.584;13.460;2023-12-28T06:39:02;129.38;;;5.75;;
83306;SDS011;73223;48.584;13.460;2023-12-28T06:41:28;276.83;;;12.32;;
83306;SDS011;73223;48.584;13.460;2023-12-28T06:43:53;166.85;;;7.97;;
83306;SDS011;73223;48.584;13.460;2023-12-28T06:46:19;119.45;;;5.75;;
83306;SDS011;73223;48.584;13.460;2023-12-28T06:48:44;202.10;;;9.63;;
83306;SDS011;73223;48.584;13.460;2023-12-28T06:51:10;207.20;;;10.25;;
83306;SDS011;73223;48.584;13.460;2023-12-28T06:53:41;215.63;;;8.95;;
83306;SDS011;73223;48.584;13.460;2023-12-28T06:56:07;266.00;;;11.27;;
83306;SDS011;73223;48.584;13.460;2023-12-28T06:58:32;234.32;;;9.80;;
83306;SDS011;73223;48.584;13.460;2023-12-28T07:00:58;84.60;;;9.50;;
83306;SDS011;73223;48.584;13.460;2023-12-28T07:03:23;144.25;;;6.72;;
83306;SDS011;73223;48.584;13.460;2023-12-28T07:05:50;149.30;;;6.10;;
83306;SDS011;73223;48.584;13.460;2023-12-28T07:08:16;120.15;;;6.82;;
83306;SDS011;73223;48.584;13.460;2023-12-28T07:10:41;90.07;;;5.03;;
83306;SDS011;73223;48.584;13.460;2023-12-28T07:13:06;164.10;;;7.47;;
83306;SDS011;73223;48.584;13.460;2023-12-28T07:15:31;29.03;;;3.33;;
83306;SDS011;73223;48.584;13.460;2023-12-28T07:17:57;80.30;;;4.90;;
83306;SDS011;73223;48.584;13.460;2023-12-28T07:20:22;72.70;;;4.30;;
83306;SDS011;73223;48.584;13.460;2023-12-28T07:22:47;81.53;;;4.67;;
83306;SDS011;73223;48.584;13.460;2023-12-28T07:25:12;37.47;;;3.97;;
83306;SDS011;73223;48.584;13.460;2023-12-28T07:27:38;49.80;;;3.03;;
83306;SDS011;73223;48.584;13.460;2023-12-28T07:30:03;97.90;;;4.60;;
83306;SDS011;73223;48.584;13.460;2023-12-28T07:32:29;44.80;;;3.97;;
83306;SDS011;73223;48.584;13.460;2023-12-28T07:34:54;76.18;;;4.38;;
83306;SDS011;73223;48.584;13.460;2023-12-28T07:37:20;41.22;;;3.30;;
83306;SDS011;73223;48.584;13.460;2023-12-28T07:39:46;34.03;;;3.42;;
83306;SDS011;73223;48.584;13.460;2023-12-28T07:42:12;58.40;;;4.40;;
83306;SDS011;73223;48.584;13.460;2023-12-28T07:44:37;34.60;;;3.15;;
83306;SDS011;73223;48.584;13.460;2023-12-28T07:47:02;57.42;;;5.85;;
83306;SDS011;73223;48.584;13.460;2023-12-28T07:49:28;80.35;;;4.88;;
83306;SDS011;73223;48.584;13.460;2023-12-28T07:51:55;136.23;;;6.43;;
83306;SDS011;73223;48.584;13.460;2023-12-28T07:54:21;178.65;;;8.35;;
83306;SDS011;73223;48.584;13.460;2023-12-28T07:56:46;83.00;;;6.30;;
83306;SDS011;73223;48.584;13.460;2023-12-28T07:59:11;169.87;;;8.50;;
83306;SDS011;73223;48.584;13.460;2023-12-28T08:01:36;201.97;;;10.03;;
83306;SDS011;73223;48.584;13.460;2023-12-28T08:04:02;266.13;;;12.90;;
83306;SDS011;73223;48.584;13.460;2023-12-28T08:06:28;94.17;;;5.70;;
83306;SDS011;73223;48.584;13.460;2023-12-28T08:08:54;13.02;;;3.10;;
83306;SDS011;73223;48.584;13.460;2023-12-28T08:11:19;237.00;;;12.55;;
83306;SDS011;73223;48.584;13.460;2023-12-28T08:13:44;263.43;;;15.33;;
83306;SDS011;73223;48.584;13.460;2023-12-28T08:16:10;126.20;;;8.00;;
83306;SDS011;73223;48.584;13.460;2023-12-28T08:18:35;266.80;;;10.93;;
83306;SDS011;73223;48.584;13.460;2023-12-28T08:21:00;102.35;;;5.55;;
83306;SDS011;73223;48.584;13.460;2023-12-28T08:23:26;168.57;;;6.97;;
83306;SDS011;73223;48.584;13.460;2023-12-28T08:25:51;120.87;;;7.07;;
83306;SDS011;73223;48.584;13.460;2023-12-28T08:28:16;176.55;;;6.68;;
83306;SDS011;73223;48.584;13.460;2023-12-28T08:30:42;112.75;;;6.00;;
83306;SDS011;73223;48.584;13.460;2023-12-28T08:33:07;112.15;;;6.30;;
83306;SDS011;73223;48.584;13.460;2023-12-28T08:35:32;143.07;;;8.03;;
83306;SDS011;73223;48.584;13.460;2023-12-28T08:37:58;122.57;;;5.60;;
83306;SDS011;73223;48.584;13.460;2023-12-28T08:40:23;71.90;;;4.50;;
83306;SDS011;73223;48.584;13.460;2023-12-28T08:42:48;88.43;;;5.30;;
83306;SDS011;73223;48.584;13.460;2023-12-28T08:45:14;131.80;;;5.90;;
83306;SDS011;73223;48.584;13.460;2023-12-28T08:47:39;146.57;;;6.95;;
83306;SDS011;73223;48.584;13.460;2023-12-28T08:50:04;50.70;;;3.83;;
83306;SDS011;73223;48.584;13.460;2023-12-28T08:52:30;84.20;;;4.90;;
83306;SDS011;73223;48.584;13.460;2023-12-28T08:54:56;122.33;;;7.30;;
83306;SDS011;73223;48.584;13.460;2023-12-28T08:57:21;108.20;;;8.43;;
83306;SDS011;73223;48.584;13.460;2023-12-28T08:59:46;58.85;;;4.95;;
83306;SDS011;73223;48.584;13.460;2023-12-28T09:02:11;135.82;;;6.18;;
83306;SDS011;73223;48.584;13.460;2023-12-28T09:04:37;67.85;;;5.50;;
83306;SDS011;73223;48.584;13.460;2023-12-28T09:07:03;109.68;;;6.90;;
83306;SDS011;73223;48.584;13.460;2023-12-28T09:09:29;8.77;;;2.92;;
83306;SDS011;73223;48.584;13.460;2023-12-28T09:11:54;11.90;;;3.10;;
83306;SDS011;73223;48.584;13.460;2023-12-28T09:14:19;7.43;;;3.13;;
83306;SDS011;73223;48.584;13.460;2023-12-28T09:16:46;6.68;;;2.80;;
83306;SDS011;73223;48.584;13.460;2023-12-28T09:21:37;7.87;;;3.07;;
83306;SDS011;73223;48.584;13.460;2023-12-28T09:24:03;8.88;;;3.00;;
83306;SDS011;73223;48.584;13.460;2023-12-28T09:26:28;7.80;;;2.92;;
83306;SDS011;73223;48.584;13.460;2023-12-28T09:28:53;11.10;;;3.50;;
83306;SDS011;73223;48.584;13.460;2023-12-28T09:31:19;82.80;;;5.72;;
83306;SDS011;73223;48.584;13.460;2023-12-28T09:33:45;31.97;;;3.60;;
83306;SDS011;73223;48.584;13.460;2023-12-28T09:36:10;146.20;;;6.90;;
83306;SDS011;73223;48.584;13.460;2023-12-28T09:38:38;30.25;;;3.90;;
83306;SDS011;73223;48.584;13.460;2023-12-28T09:41:11;19.05;;;3.20;;
83306;SDS011;73223;48.584;13.460;2023-12-28T09:43:45;12.20;;;3.55;;
83306;SDS011;73223;48.584;13.460;2023-12-28T09:46:33;6.95;;;2.55;;
83306;SDS011;73223;48.584;13.460;2023-12-28T09:49:00;8.50;;;3.33;;
83306;SDS011;73223;48.584;13.460;2023-12-28T09:51:25;8.13;;;3.20;;
83306;SDS011;73223;48.584;13.460;2023-12-28T09:53:50;10.48;;;3.60;;
83306;SDS011;73223;48.584;13.460;2023-12-28T09:56:16;8.48;;;3.45;;
83306;SDS011;73223;48.584;13.460;2023-12-28T09:58:41;10.45;;;4.03;;
83306;SDS011;73223;48.584;13.460;2023-12-28T10:01:07;7.53;;;3.13;;
83306;SDS011;73223;48.584;13.460;2023-12-28T10:06:00;8.47;;;3.70;;
83306;SDS011;73223;48.584;13.460;2023-12-28T10:08:25;7.63;;;3.17;;
83306;SDS011;73223;48.584;13.460;2023-12-28T10:10:50;9.10;;;3.67;;
83306;SDS011;73223;48.584;13.460;2023-12-28T10:13:16;8.88;;;3.47;;
83306;SDS011;73223;48.584;13.460;2023-12-28T10:15:42;9.85;;;3.58;;
83306;SDS011;73223;48.584;13.460;2023-12-28T10:18:08;6.97;;;3.33;;
83306;SDS011;73223;48.584;13.460;2023-12-28T10:20:33;7.50;;;3.38;;
83306;SDS011;73223;48.584;13.460;2023-12-28T10:22:59;8.73;;;3.30;;
83306;SDS011;73223;48.584;13.460;2023-12-28T10:25:25;8.10;;;3.38;;
83306;SDS011;73223;48.584;13.460;2023-12-28T10:27:52;9.52;;;3.97;;
83306;SDS011;73223;48.584;13.460;2023-12-28T10:30:19;8.23;;;3.13;;
83306;SDS011;73223;48.584;13.460;2023-12-28T10:32:45;8.20;;;3.28;;
83306;SDS011;73223;48.584;13.460;2023-12-28T10:35:11;8.10;;;3.05;;
83306;SDS011;73223;48.584;13.460;2023-12-28T10:37:36;8.13;;;3.55;;
83306;SDS011;73223;48.584;13.460;2023-12-28T10:40:05;9.27;;;3.53;;
83306;SDS011;73223;48.584;13.460;2023-12-28T10:42:33;7.47;;;3.35;;
83306;SDS011;73223;48.584;13.460;2023-12-28T10:45:04;8.75;;;3.75;;
83306;SDS011;73223;48.584;13.460;2023-12-28T10:50:05;9.60;;;3.72;;
83306;SDS011;73223;48.584;13.460;2023-12-28T10:52:32;7.65;;;3.40;;
83306;SDS011;73223;48.584;13.460;2023-12-28T10:57:35;9.00;;;3.55;;
83306;SDS011;73223;48.584;13.460;2023-12-28T11:00:15;9.73;;;3.97;;
83306;SDS011;73223;48.584;13.460;2023-12-28T11:02:45;10.15;;;4.20;;
83306;SDS011;73223;48.584;13.460;2023-12-28T11:05:13;8.18;;;3.88;;
83306;SDS011;73223;48.584;13.460;2023-12-28T11:07:41;12.73;;;4.07;;
83306;SDS011;73223;48.584;13.460;2023-12-28T11:10:08;8.27;;;3.83;;
83306;SDS011;73223;48.584;13.460;2023-12-28T11:12:35;7.75;;;3.20;;
83306;SDS011;73223;48.584;13.460;2023-12-28T11:15:02;7.38;;;3.15;;
83306;SDS011;73223;48.584;13.460;2023-12-28T11:17:30;8.15;;;3.55;;
83306;SDS011;73223;48.584;13.460;2023-12-28T11:19:56;7.03;;;2.88;;
83306;SDS011;73223;48.584;13.460;2023-12-28T11:22:22;7.65;;;2.97;;
83306;SDS011;73223;48.584;13.460;2023-12-28T11:24:49;6.47;;;2.63;;
83306;SDS011;73223;48.584;13.460;2023-12-28T11:27:18;8.27;;;3.47;;
83306;SDS011;73223;48.584;13.460;2023-12-28T11:29:43;6.85;;;2.75;;
83306;SDS011;73223;48.584;13.460;2023-12-28T11:32:10;7.38;;;2.90;;
83306;SDS011;73223;48.584;13.460;2023-12-28T11:34:35;6.82;;;2.88;;
83306;SDS011;73223;48.584;13.460;2023-12-28T11:37:07;6.72;;;2.80;;
83306;SDS011;73223;48.584;13.460;2023-12-28T11:39:37;7.57;;;3.28;;
83306;SDS011;73223;48.584;13.460;2023-12-28T11:42:08;10.45;;;3.10;;
83306;SDS011;73223;48.584;13.460;2023-12-28T11:44:41;7.75;;;3.45;;
83306;SDS011;73223;48.584;13.460;2023-12-28T11:47:42;8.18;;;3.45;;
83306;SDS011;73223;48.584;13.460;2023-12-28T11:50:07;9.68;;;4.60;;
83306;SDS011;73223;48.584;13.460;2023-12-28T11:52:32;10.07;;;4.28;;
83306;SDS011;73223;48.584;13.460;2023-12-28T11:54:59;8.02;;;3.88;;
83306;SDS011;73223;48.584;13.460;2023-12-28T11:57:25;9.75;;;4.68;;
83306;SDS011;73223;48.584;13.460;2023-12-28T12:00:00;13.10;;;4.50;;
83306;SDS011;73223;48.584;13.460;2023-12-28T12:02:27;10.07;;;4.40;;
83306;SDS011;73223;48.584;13.460;2023-12-28T12:04:55;9.20;;;4.45;;
83306;SDS011;73223;48.584;13.460;2023-12-28T12:07:26;9.23;;;4.20;;
83306;SDS011;73223;48.584;13.460;2023-12-28T12:09:55;8.85;;;4.10;;
83306;SDS011;73223;48.584;13.460;2023-12-28T12:12:24;9.18;;;4.22;;
83306;SDS011;73223;48.584;13.460;2023-12-28T12:14:49;10.60;;;4.43;;
83306;SDS011;73223;48.584;13.460;2023-12-28T12:17:15;9.30;;;4.30;;
83306;SDS011;73223;48.584;13.460;2023-12-28T12:19:41;7.72;;;3.83;;
83306;SDS011;73223;48.584;13.460;2023-12-28T12:22:06;9.18;;;4.00;;
83306;SDS011;73223;48.584;13.460;2023-12-28T12:24:31;11.20;;;4.33;;
83306;SDS011;73223;48.584;13.460;2023-12-28T12:26:58;9.52;;;3.95;;
83306;SDS011;73223;48.584;13.460;2023-12-28T12:29:27;10.93;;;4.28;;
83306;SDS011;73223;48.584;13.460;2023-12-28T12:31:55;10.27;;;5.15;;
83306;SDS011;73223;48.584;13.460;2023-12-28T12:34:21;10.75;;;5.20;;
83306;SDS011;73223;48.584;13.460;2023-12-28T12:36:46;10.35;;;5.10;;
83306;SDS011;73223;48.584;13.460;2023-12-28T12:39:11;8.73;;;3.75;;
83306;SDS011;73223;48.584;13.460;2023-12-28T12:41:37;8.63;;;3.80;;
83306;SDS011;73223;48.584;13.460;2023-12-28T12:44:02;8.23;;;3.95;;
83306;SDS011;73223;48.584;13.460;2023-12-28T12:46:29;8.98;;;4.10;;
83306;SDS011;73223;48.584;13.460;2023-12-28T12:48:56;9.40;;;4.00;;
83306;SDS011;73223;48.584;13.460;2023-12-28T12:51:25;9.05;;;4.18;;
83306;SDS011;73223;48.584;13.460;2023-12-28T12:53:56;8.68;;;3.67;;
83306;SDS011;73223;48.584;13.460;2023-12-28T12:56:22;7.82;;;3.47;;
83306;SDS011;73223;48.584;13.460;2023-12-28T12:58:47;9.57;;;4.30;;
83306;SDS011;73223;48.584;13.460;2023-12-28T13:01:13;8.52;;;3.30;;
83306;SDS011;73223;48.584;13.460;2023-12-28T13:03:39;8.30;;;3.67;;
83306;SDS011;73223;48.584;13.460;2023-12-28T13:06:05;9.68;;;3.88;;
83306;SDS011;73223;48.584;13.460;2023-12-28T13:08:30;8.90;;;3.88;;
83306;SDS011;73223;48.584;13.460;2023-12-28T13:10:55;10.17;;;4.07;;
83306;SDS011;73223;48.584;13.460;2023-12-28T13:13:20;7.60;;;3.50;;
83306;SDS011;73223;48.584;13.460;2023-12-28T13:15:46;8.57;;;3.85;;
83306;SDS011;73223;48.584;13.460;2023-12-28T13:18:11;8.30;;;3.67;;
83306;SDS011;73223;48.584;13.460;2023-12-28T13:20:37;8.30;;;3.72;;
83306;SDS011;73223;48.584;13.460;2023-12-28T13:23:02;9.77;;;4.10;;
83306;SDS011;73223;48.584;13.460;2023-12-28T13:25:28;9.50;;;3.97;;
83306;SDS011;73223;48.584;13.460;2023-12-28T13:27:53;10.60;;;4.23;;
83306;SDS011;73223;48.584;13.460;2023-12-28T13:30:18;9.43;;;4.53;;
83306;SDS011;73223;48.584;13.460;2023-12-28T13:32:44;8.95;;;3.97;;
83306;SDS011;73223;48.584;13.460;2023-12-28T13:35:09;10.90;;;5.00;;
83306;SDS011;73223;48.584;13.460;2023-12-28T13:37:34;16.07;;;4.97;;
83306;SDS011;73223;48.584;13.460;2023-12-28T13:39:59;9.93;;;4.80;;
83306;SDS011;73223;48.584;13.460;2023-12-28T13:42:25;12.37;;;4.60;;
83306;SDS011;73223;48.584;13.460;2023-12-28T13:44:50;12.47;;;4.53;;
83306;SDS011;73223;48.584;13.460;2023-12-28T13:47:15;9.73;;;4.80;;
83306;SDS011;73223;48.584;13.460;2023-12-28T13:49:40;9.57;;;4.33;;
83306;SDS011;73223;48.584;13.460;2023-12-28T13:52:06;13.48;;;5.18;;
83306;SDS011;73223;48.584;13.460;2023-12-28T13:54:31;12.13;;;5.07;;
83306;SDS011;73223;48.584;13.460;2023-12-28T13:56:56;12.03;;;5.83;;
83306;SDS011;73223;48.584;13.460;2023-12-28T13:59:23;13.30;;;5.20;;
83306;SDS011;73223;48.584;13.460;2023-12-28T14:01:49;12.07;;;5.60;;
83306;SDS011;73223;48.584;13.460;2023-12-28T14:04:14;13.90;;;5.47;;
83306;SDS011;73223;48.584;13.460;2023-12-28T14:06:39;11.67;;;5.33;;
83306;SDS011;73223;48.584;13.460;2023-12-28T14:09:05;16.33;;;5.43;;
83306;SDS011;73223;48.584;13.460;2023-12-28T14:11:30;14.03;;;4.90;;
83306;SDS011;73223;48.584;13.460;2023-12-28T14:13:55;14.23;;;5.72;;
83306;SDS011;73223;48.584;13.460;2023-12-28T14:16:21;12.85;;;4.97;;
83306;SDS011;73223;48.584;13.460;2023-12-28T14:18:46;11.53;;;5.13;;
83306;SDS011;73223;48.584;13.460;2023-12-28T14:21:12;12.73;;;5.05;;
83306;SDS011;73223;48.584;13.460;2023-12-28T14:23:38;11.07;;;4.90;;
83306;SDS011;73223;48.584;13.460;2023-12-28T14:26:05;10.32;;;4.95;;